Moore, OK (73165)

6:40 AM CDT on September 22, 2014 (GMT -0500)
Tinker Air Force Base | Change Station
CLOSE
Current Station
Airport
Location: Tinker AFB,
Elevation: 1293 ft
Nearby Weather Stations

Elev 1293 ft 35.41 °N, 97.39 °W | Updated 42 minutes ago

Clear
Clear
58 °F
Feels Like 58 °F
N
8
Wind Variable Wind from NE

Today
High -- | Low -- °F
--% Chance of Precip.
Yesterday
High -- | Low -- °F
Precip. -- in
7:17 AM 7:26 PM
Waning Crescent, 3% visible
Pressure 30.25 in
Visibility 10.0 miles
Clouds Clear
Dew Point 50 °F
Humidity 74%
Rainfall 0.00 in
Snow Depth Not available.
UV 0 out of 12
Pollen 9.80 out of 12
Ozone Good
PM2.5 Good
Flu Activity Not available.
METAR KTIK 221058Z AUTO 05007KT 10SM CLR 14/10 A3025 RMK AO2 SLP244 T01420097 $

More Conditions Fewer Conditions

Pressure 30.25 in
Visibility 10.0 miles
Clouds Clear
Dew Point 50 °F
Humidity 74%
Rainfall 0.00 in
Snow Depth Not available.
UV 0 out of 12
Pollen 9.80 out of 12
Ozone Good
PM2.5 Good
Flu Activity Not available.
METAR KTIK 221058Z AUTO 05007KT 10SM CLR 14/10 A3025 RMK AO2 SLP244 T01420097 $

More Conditions Fewer Conditions

10-Day Weather Forecast

Almanac

Astronomy

Sep. 22, 2014 Rise Set
Actual Time 7:17 AM CDT 7:26 PM CDT
Civil Twilight 6:52 AM CDT 7:51 PM CDT
Nautical Twilight 6:22 AM CDT 8:21 PM CDT
Astronomical Twilight 5:52 AM CDT 8:51 PM CDT
Moon 5:49 AM CDT 6:33 PM CDT
Length of Visible Light 12h 59m
Length of Day
12h 08m
Tomorrow will be 2m 12s shorter.
Waning Crescent, 3% of the Moon is Illuminated
Today
Waning Crescent
Sep 24
New
Oct 1
First Quarter
Oct 8
Full
Oct 15
Last Quarter

Today's Extremes

State Highs State Lows

Community

WunderPhotos

Upload Photos

1,755,409 photos uploaded!

Nearby

Air Quality

  Air Quality AQ Index Pollutant
Yesterday Good
OZONE
Yesterday Good
PM2.5
Current Good
PM2.5
Current Good
OZONE
Monday Good
OZONE
Monday Good
PM2.5
Tuesday Good
OZONE
Tuesday Good
PM2.5
Wednesday Good
OZONE
Wednesday Good
PM2.5

Snow Depth

Station Depth Elevation
No new snow has been reported.

Earthquake Activity

City Distance Mag. Time & Date
Medford, Oklahoma 104 miles 3.2 2:10 AM CDT
2014-09-20
Luther, Oklahoma 26 miles 2.7 4:47 PM CDT
2014-09-19
Guthrie, Oklahoma 33 miles 3.6 12:23 PM CDT
2014-09-19
Jones, Oklahoma 16 miles 2.8 1:13 AM CDT
2014-09-19
Minimum magnitude displayed is 2.5.

Coastal Water Temperatures

Place Temperature
No Stations Reporting

Nearby Weather Stations